Time;durP1;ratioP1;P1;durP2;ratioP2;P2;SDS_P1;SDS_P2;PMS_P1;PMS_P2;Temp;Humidity;BMP_temperature;BMP_pressure;BME280_temperature;BME280_humidity;BME280_pressure;Samples;Min_cycle;Max_cycle;Signal;HPM_P1;HPM_P2
2023/04/06 00:02:25;;;;;;;8.05;6.40;;;;;;;1.79;38.73;99151.22;5085291;28;20036;-70
2023/04/06 00:04:52;;;;;;;7.50;5.47;;;;;;;3.43;38.80;99431.59;5085021;28;20051;-69
2023/04/06 00:07:19;;;;;;;11.23;5.80;;;;;;;3.78;38.82;99493.59;5085020;28;20107;-70
2023/04/06 00:09:48;;;;;;;7.15;5.20;;;;;;;3.74;39.09;99497.19;5085027;28;20112;-70
2023/04/06 00:12:14;;;;;;;8.05;5.68;;;;;;;3.72;38.99;99497.25;5084545;28;20037;-71
2023/04/06 00:14:41;;;;;;;7.85;5.30;;;;;;;3.74;39.00;99486.72;5084641;28;20067;-69
2023/04/06 00:17:08;;;;;;;7.85;5.57;;;;;;;3.69;39.10;99496.47;5086396;28;20200;-70
2023/04/06 00:19:35;;;;;;;6.72;5.50;;;;;;;3.69;38.93;99488.59;5088962;28;20106;-70
2023/04/06 00:22:02;;;;;;;8.75;6.03;;;;;;;3.67;39.14;99493.00;5088096;28;20036;-71
2023/04/06 00:24:29;;;;;;;10.02;6.63;;;;;;;3.61;39.17;99486.16;5087491;28;20153;-71
2023/04/06 00:26:57;;;;;;;9.05;6.38;;;;;;;3.59;39.31;99493.19;5088190;28;20090;-71
2023/04/06 00:29:24;;;;;;;10.60;7.03;;;;;;;3.53;39.36;99485.50;5088328;28;20216;-71
2023/04/06 00:31:50;;;;;;;10.50;7.15;;;;;;;3.50;39.55;99488.19;5088328;28;20067;-71
2023/04/06 00:34:17;;;;;;;7.47;6.20;;;;;;;3.48;39.53;99487.38;5088051;28;20184;-71
2023/04/06 00:36:44;;;;;;;7.72;6.32;;;;;;;3.46;39.65;99482.16;5088665;28;20052;-71
2023/04/06 00:39:11;;;;;;;7.65;5.50;;;;;;;3.44;39.62;99481.34;5088250;28;20059;-71
2023/04/06 00:41:38;;;;;;;7.50;5.70;;;;;;;3.42;39.65;99480.50;5087788;28;20072;-71
2023/04/06 00:44:06;;;;;;;7.13;5.15;;;;;;;3.40;39.92;99471.81;5088415;28;20044;-71
2023/04/06 00:46:33;;;;;;;6.50;5.15;;;;;;;3.40;39.87;99477.06;5088366;28;20090;-70
2023/04/06 00:48:59;;;;;;;8.25;5.47;;;;;;;3.17;39.63;99443.56;5087780;28;20040;-71
2023/04/06 00:51:26;;;;;;;7.57;6.10;;;;;;;3.34;39.77;99481.59;5087785;28;20109;-70
2023/04/06 00:53:54;;;;;;;7.25;5.18;;;;;;;3.32;39.78;99476.38;5087595;28;20041;-71
2023/04/06 00:56:21;;;;;;;6.32;5.32;;;;;;;2.78;39.83;99386.91;5088097;28;20287;-71
2023/04/06 00:58:47;;;;;;;7.60;5.68;;;;;;;3.29;39.95;99479.09;5086750;28;20040;-70
2023/04/06 01:01:16;;;;;;;8.45;5.95;;;;;;;3.00;40.35;99431.75;5088122;28;20055;-71
2023/04/06 01:03:44;;;;;;;7.88;6.00;;;;;;;3.25;40.17;99474.81;5087485;28;20089;-71
2023/04/06 01:06:10;;;;;;;7.10;5.32;;;;;;;2.62;40.45;99391.63;5087422;28;20060;-71
2023/04/06 01:08:37;;;;;;;7.47;5.45;;;;;;;3.20;40.24;99474.06;5087752;28;20086;-71
2023/04/06 01:11:04;;;;;;;9.85;5.65;;;;;;;3.16;40.47;99477.66;5087891;28;20040;-71
2023/04/06 01:13:31;;;;;;;7.13;5.68;;;;;;;3.14;40.56;99474.22;5087888;28;20104;-71
2023/04/06 01:15:58;;;;;;;7.25;5.60;;;;;;;3.11;40.46;99475.13;5087369;28;20094;-71
2023/04/06 01:18:28;;;;;;;7.60;5.43;;;;;;;3.07;40.86;99470.88;5086733;28;20044;-70
2023/04/06 01:20:55;;;;;;;8.45;5.82;;;;;;;3.03;40.95;99473.59;5087651;28;20121;-71
2023/04/06 01:23:23;;;;;;;7.68;5.72;;;;;;;2.98;40.90;99475.44;5087263;28;20036;-71
2023/04/06 01:25:50;;;;;;;8.07;6.70;;;;;;;2.94;40.88;99471.19;5086238;28;20040;-70
2023/04/06 01:28:16;;;;;;;9.38;6.35;;;;;;;2.94;40.86;99466.81;5086517;28;20243;-70
2023/04/06 01:30:43;;;;;;;8.00;6.22;;;;;;;2.91;40.79;99471.25;5087341;28;20048;-70
2023/04/06 01:33:10;;;;;;;7.78;5.47;;;;;;;2.87;40.94;99468.69;5087541;28;20040;-70
2023/04/06 01:35:36;;;;;;;7.38;5.93;;;;;;;2.84;40.89;99458.28;5087456;28;20101;-70
2023/04/06 01:38:03;;;;;;;9.95;5.70;;;;;;;2.83;40.91;99463.56;5086904;28;20058;-70
2023/04/06 01:40:31;;;;;;;7.47;5.63;;;;;;;2.59;41.20;99433.56;5086860;28;20040;-70
2023/04/06 01:42:58;;;;;;;7.65;6.07;;;;;;;2.76;41.01;99461.97;5085855;28;20049;-70
2023/04/06 01:45:25;;;;;;;8.93;5.90;;;;;;;2.73;41.03;99468.13;5087006;28;20338;-69
2023/04/06 01:47:51;;;;;;;8.63;5.30;;;;;;;1.49;41.16;99265.03;5086944;28;20067;-70
2023/04/06 01:50:18;;;;;;;5.95;5.07;;;;;;;2.71;41.00;99462.06;5086984;28;20056;-70
2023/04/06 01:52:45;;;;;;;7.93;5.47;;;;;;;2.68;41.07;99463.91;5086588;28;20045;-69
2023/04/06 01:55:13;;;;;;;11.68;5.78;;;;;;;2.64;41.13;99460.50;5087228;28;20059;-69
2023/04/06 01:57:41;;;;;;;7.97;5.20;;;;;;;2.62;41.22;99458.78;5086001;28;20207;-68
2023/04/06 02:00:09;;;;;;;7.05;5.28;;;;;;;2.57;41.21;99455.41;5086565;28;20043;-68
2023/04/06 02:02:36;;;;;;;7.47;5.10;;;;;;;2.56;41.33;99459.78;5086186;28;20040;-69
2023/04/06 02:05:02;;;;;;;8.32;5.93;;;;;;;2.52;41.31;99453.75;5086819;28;20048;-69
2023/04/06 02:07:29;;;;;;;7.47;5.65;;;;;;;2.33;41.25;99423.66;5086898;28;20043;-69
2023/04/06 02:09:56;;;;;;;9.82;6.00;;;;;;;2.52;41.24;99458.13;5086309;28;20044;-69
2023/04/06 02:12:23;;;;;;;7.72;5.60;;;;;;;2.51;41.29;99454.66;5085461;28;20127;-69
2023/04/06 02:14:51;;;;;;;6.80;5.68;;;;;;;2.51;41.21;99453.78;5086745;28;20063;-68
2023/04/06 02:17:18;;;;;;;7.18;5.97;;;;;;;2.49;41.17;99455.56;5086629;28;20235;-68
2023/04/06 02:19:44;;;;;;;6.80;5.40;;;;;;;2.47;41.30;99459.97;5085787;28;20052;-69
2023/04/06 02:22:11;;;;;;;7.22;5.20;;;;;;;2.42;41.25;99457.47;5086597;28;20040;-68
2023/04/06 02:24:38;;;;;;;6.22;4.72;;;;;;;2.40;41.08;99455.78;5086291;28;20098;-68
2023/04/06 02:27:05;;;;;;;8.55;6.00;;;;;;;2.15;41.48;99413.56;5085947;28;20048;-68
2023/04/06 02:29:32;;;;;;;6.65;5.90;;;;;;;2.11;41.72;99415.38;5085927;28;20105;-69
2023/04/06 02:32:00;;;;;;;7.30;5.10;;;;;;;2.29;41.37;99449.91;5086208;28;20044;-68
2023/04/06 02:34:27;;;;;;;8.48;6.00;;;;;;;2.28;41.50;99453.41;5085690;28;20300;-69
2023/04/06 02:36:53;;;;;;;9.45;5.07;;;;;;;2.27;41.40;99452.53;5086012;28;20054;-69
2023/04/06 02:39:20;;;;;;;5.65;4.88;;;;;;;2.27;41.46;99455.16;5086030;28;20186;-69
2023/04/06 02:41:46;;;;;;;7.60;5.13;;;;;;;2.26;41.36;99448.19;5085740;28;20048;-69
2023/04/06 02:44:13;;;;;;;6.93;5.75;;;;;;;2.26;41.29;99449.97;5084828;28;20231;-69
2023/04/06 02:46:40;;;;;;;6.82;5.10;;;;;;;2.11;41.41;99417.13;5085929;28;20125;-69
2023/04/06 02:49:08;;;;;;;7.97;5.10;;;;;;;2.28;41.36;99440.31;5085893;28;20093;-69
2023/04/06 02:51:37;;;;;;;6.45;5.10;;;;;;;2.27;41.42;99441.22;5085654;28;20108;-69
2023/04/06 02:54:03;;;;;;;7.15;5.18;;;;;;;2.28;41.24;99441.19;5085658;28;20316;-69
2023/04/06 02:56:30;;;;;;;7.47;6.05;;;;;;;2.05;41.51;99409.41;5085734;28;20033;-68
2023/04/06 02:58:57;;;;;;;7.25;5.00;;;;;;;2.26;41.54;99449.97;5084664;28;20037;-69
2023/04/06 03:01:24;;;;;;;8.70;5.30;;;;;;;2.30;41.54;99449.00;5086047;28;20040;-68
2023/04/06 03:03:51;;;;;;;6.85;5.75;;;;;;;2.27;41.70;99452.53;5085741;28;20040;-68
2023/04/06 03:06:19;;;;;;;6.50;5.35;;;;;;;2.25;41.54;99449.09;5085703;28;20041;-68
2023/04/06 03:08:47;;;;;;;8.07;6.53;;;;;;;2.22;41.76;99442.16;5085792;28;20322;-68
2023/04/06 03:11:13;;;;;;;7.00;5.75;;;;;;;2.21;41.80;99445.69;5085697;28;20052;-69
2023/04/06 03:13:40;;;;;;;8.40;5.97;;;;;;;2.22;42.18;99446.53;5085520;28;20094;-68
2023/04/06 03:16:07;;;;;;;6.93;5.63;;;;;;;2.22;41.93;99446.53;5085563;28;20099;-68
2023/04/06 03:18:34;;;;;;;7.07;5.55;;;;;;;2.19;41.89;99450.06;5085925;28;20090;-68
2023/04/06 03:21:01;;;;;;;7.88;5.70;;;;;;;2.18;42.08;99450.97;5085630;28;20166;-68
2023/04/06 03:23:28;;;;;;;11.15;5.90;;;;;;;2.14;41.95;99451.06;5085291;28;20090;-69
2023/04/06 03:25:55;;;;;;;6.93;5.35;;;;;;;2.16;42.15;99446.66;5085337;28;20048;-68
2023/04/06 03:28:22;;;;;;;6.57;5.55;;;;;;;2.15;41.89;99451.03;5085194;28;20047;-68
2023/04/06 03:30:48;;;;;;;7.80;5.90;;;;;;;2.15;42.08;99448.41;5085762;28;20093;-69
2023/04/06 03:33:15;;;;;;;6.60;5.40;;;;;;;2.15;42.12;99453.66;5085070;28;20108;-68
2023/04/06 03:35:42;;;;;;;8.25;6.00;;;;;;;1.18;42.04;99301.31;5085469;28;20315;-68
2023/04/06 03:38:08;;;;;;;7.05;5.03;;;;;;;2.15;42.19;99453.66;5084128;28;20037;-69
2023/04/06 03:40:36;;;;;;;7.10;5.50;;;;;;;2.12;42.18;99453.72;5085136;28;20052;-69
2023/04/06 03:43:05;;;;;;;7.65;6.18;;;;;;;2.11;42.07;99453.72;5084995;28;20052;-69
2023/04/06 03:45:31;;;;;;;8.02;5.55;;;;;;;2.09;42.24;99456.38;5085573;28;20040;-69
2023/04/06 03:47:58;;;;;;;7.28;6.00;;;;;;;2.08;42.17;99454.66;5085404;28;20103;-69
2023/04/06 03:50:25;;;;;;;8.15;5.45;;;;;;;2.07;42.26;99454.69;5085547;28;20052;-69
2023/04/06 03:52:51;;;;;;;8.52;6.40;;;;;;;2.06;42.09;99464.28;5090580;28;20104;-69
2023/04/06 03:55:18;;;;;;;6.78;5.50;;;;;;;2.05;42.17;99461.69;5095137;28;20044;-66
2023/04/06 03:57:46;;;;;;;7.40;5.75;;;;;;;2.05;42.25;99459.94;5093037;28;20090;-68
2023/04/06 04:00:13;;;;;;;7.28;5.53;;;;;;;2.01;42.16;99460.91;5094852;28;20040;-68
2023/04/06 04:02:40;;;;;;;6.25;5.53;;;;;;;1.83;42.08;99437.72;5096046;28;20052;-68
2023/04/06 04:05:07;;;;;;;7.57;5.63;;;;;;;2.04;42.15;99466.06;5093527;28;20047;-68
2023/04/06 04:07:34;;;;;;;6.68;5.68;;;;;;;2.03;42.35;99481.78;5089225;28;20045;-69
2023/04/06 04:10:01;;;;;;;10.10;5.97;;;;;;;2.00;42.51;99482.69;5088549;28;20239;-69
2023/04/06 04:12:27;;;;;;;13.18;6.35;;;;;;;1.98;42.46;99476.63;5088669;28;20051;-69
2023/04/06 04:14:55;;;;;;;10.15;5.93;;;;;;;1.97;42.51;99469.69;5088762;28;20071;-69
2023/04/06 04:17:22;;;;;;;8.65;6.43;;;;;;;1.96;42.66;99481.03;5088839;28;20044;-68
2023/04/06 04:19:49;;;;;;;7.90;6.18;;;;;;;1.93;42.59;99470.63;5088751;28;20032;-68
2023/04/06 04:22:15;;;;;;;8.20;6.78;;;;;;;1.92;42.67;99471.53;5088972;28;20044;-69
2023/04/06 04:24:42;;;;;;;6.97;6.18;;;;;;;1.90;42.70;99473.31;5089406;28;20057;-68
2023/04/06 04:27:09;;;;;;;8.98;7.25;;;;;;;1.92;42.61;99470.66;5088441;28;20264;-68
2023/04/06 04:29:36;;;;;;;9.27;6.05;;;;;;;1.93;42.72;99473.25;5088468;28;20083;-69
2023/04/06 04:32:04;;;;;;;6.88;6.18;;;;;;;1.73;43.03;99446.59;5088178;28;20184;-69
2023/04/06 04:34:31;;;;;;;7.35;5.68;;;;;;;1.93;42.84;99481.09;5088386;28;20098;-69
2023/04/06 04:36:58;;;;;;;8.50;6.22;;;;;;;1.89;43.09;99487.25;5088620;28;20044;-69
2023/04/06 04:39:24;;;;;;;8.48;6.95;;;;;;;1.89;43.21;99482.88;5088352;28;20049;-69
2023/04/06 04:41:51;;;;;;;13.02;7.75;;;;;;;1.90;42.95;99489.84;5088551;28;20055;-69
2023/04/06 04:44:17;;;;;;;11.20;7.90;;;;;;;1.90;43.39;99486.38;5087915;28;20052;-68
2023/04/06 04:46:44;;;;;;;9.88;7.10;;;;;;;1.71;43.12;99458.84;5088252;28;20037;-69
2023/04/06 04:49:12;;;;;;;9.80;7.72;;;;;;;1.91;43.35;99488.09;5087978;28;20042;-69
2023/04/06 04:51:39;;;;;;;8.23;7.03;;;;;;;1.91;43.40;99485.47;5088281;28;20052;-69
2023/04/06 04:54:05;;;;;;;8.30;7.07;;;;;;;1.90;43.51;99478.53;5088039;28;20087;-69
2023/04/06 04:56:32;;;;;;;10.57;7.88;;;;;;;1.89;43.63;99479.41;5087941;28;20300;-68
2023/04/06 04:58:59;;;;;;;7.95;7.00;;;;;;;1.88;43.50;99475.94;5086772;28;20300;-67
2023/04/06 05:01:26;;;;;;;9.20;6.85;;;;;;;1.90;43.73;99475.91;5087556;28;20323;-68
2023/04/06 05:03:52;;;;;;;10.00;8.10;;;;;;;1.90;43.97;99474.16;5087473;28;20040;-68
2023/04/06 05:06:20;;;;;;;10.18;8.10;;;;;;;1.89;44.14;99477.66;5087880;28;20056;-68
2023/04/06 05:08:47;;;;;;;9.32;7.60;;;;;;;1.93;43.95;99475.00;5087981;28;20040;-69
2023/04/06 05:11:14;;;;;;;9.50;7.30;;;;;;;1.93;43.82;99480.22;5087607;28;20308;-68
2023/04/06 05:13:40;;;;;;;8.68;6.97;;;;;;;1.68;43.73;99431.00;5087536;28;20036;-68
2023/04/06 05:16:07;;;;;;;8.02;6.88;;;;;;;1.94;43.94;99480.19;5087270;28;20033;-69
2023/04/06 05:18:34;;;;;;;9.98;7.72;;;;;;;1.96;43.95;99485.41;5087618;28;20036;-69
2023/04/06 05:21:00;;;;;;;8.20;6.50;;;;;;;1.99;44.01;99472.28;5087288;28;20052;-69
2023/04/06 05:23:28;;;;;;;9.15;7.10;;;;;;;1.98;44.07;99489.69;5086983;28;20051;-69
2023/04/06 05:25:55;;;;;;;11.98;7.63;;;;;;;1.99;44.04;99472.28;5087484;28;20127;-69
2023/04/06 05:28:22;;;;;;;10.02;7.35;;;;;;;2.00;44.28;99474.00;5087153;28;20052;-69
2023/04/06 05:30:49;;;;;;;8.70;7.35;;;;;;;2.04;44.14;99478.28;5087638;28;20047;-69
2023/04/06 05:33:15;;;;;;;9.07;7.10;;;;;;;2.06;44.04;99473.88;5087227;28;20113;-69
2023/04/06 05:35:42;;;;;;;8.77;7.18;;;;;;;2.09;44.04;99469.44;5087536;28;20319;-69
2023/04/06 05:38:09;;;;;;;8.02;6.75;;;;;;;2.10;44.04;99479.03;5087162;28;20041;-69
2023/04/06 05:40:40;;;;;;;9.45;7.18;;;;;;;2.15;44.31;99473.69;5086851;28;20086;-69
2023/04/06 05:43:07;;;;;;;9.85;6.65;;;;;;;2.19;43.89;99473.63;5086821;28;20052;-69
2023/04/06 05:45:34;;;;;;;11.18;7.45;;;;;;;2.25;44.05;99477.88;5087592;28;20059;-69
2023/04/06 05:48:01;;;;;;;9.68;7.38;;;;;;;2.27;44.15;99476.06;5087341;28;20043;-69
2023/04/06 05:50:28;;;;;;;9.95;7.15;;;;;;;2.31;44.06;99464.66;5086715;28;20053;-69
2023/04/06 05:52:54;;;;;;;7.93;6.68;;;;;;;2.35;44.03;99468.94;5087161;28;20111;-69
2023/04/06 05:55:21;;;;;;;8.38;6.97;;;;;;;2.42;43.87;99477.53;5086844;28;20052;-68
2023/04/06 05:57:49;;;;;;;10.27;7.75;;;;;;;2.29;43.90;99435.06;5086871;28;20200;-68
2023/04/06 06:00:16;;;;;;;10.98;8.15;;;;;;;2.53;43.92;99465.94;5086681;28;20040;-68
2023/04/06 06:02:43;;;;;;;8.20;6.43;;;;;;;2.58;43.84;99476.31;5086714;28;20090;-69
2023/04/06 06:05:10;;;;;;;9.35;7.78;;;;;;;2.66;43.81;99481.38;5086844;28;20044;-68
2023/04/06 06:07:37;;;;;;;9.88;7.00;;;;;;;2.72;43.69;99471.66;5086308;28;20040;-69
2023/04/06 06:10:04;;;;;;;8.75;7.30;;;;;;;2.82;43.53;99478.41;5086271;28;20052;-69
2023/04/06 06:12:30;;;;;;;9.00;6.70;;;;;;;2.93;43.57;99469.47;5086777;28;20055;-69
2023/04/06 06:14:58;;;;;;;8.23;6.60;;;;;;;3.05;43.32;99477.91;5085541;28;20044;-69
2023/04/06 06:17:25;;;;;;;8.32;7.30;;;;;;;3.01;43.01;99446.59;5086268;28;20101;-70
2023/04/06 06:19:52;;;;;;;9.63;7.15;;;;;;;3.43;42.88;99482.22;5086190;28;20052;-70
2023/04/06 06:22:18;;;;;;;8.48;6.47;;;;;;;3.08;42.53;99369.59;5086576;28;20044;-70
2023/04/06 06:24:45;;;;;;;7.20;6.45;;;;;;;4.01;42.01;99464.16;5086295;28;20288;-70
2023/04/06 06:27:12;;;;;;;8.57;6.38;;;;;;;4.37;41.44;99468.44;5086202;28;20078;-70
2023/04/06 06:29:38;;;;;;;7.70;6.88;;;;;;;4.65;40.89;99468.50;5086178;28;20090;-70
2023/04/06 06:32:08;;;;;;;7.10;6.38;;;;;;;4.71;40.69;99433.31;5085790;28;20297;-69
2023/04/06 06:34:35;;;;;;;9.40;7.00;;;;;;;5.18;40.33;99468.66;5085791;28;20040;-70
2023/04/06 06:37:02;;;;;;;9.00;6.53;;;;;;;5.42;40.12;99467.03;5086360;28;20040;-70
2023/04/06 06:39:29;;;;;;;8.25;6.45;;;;;;;5.66;39.69;99462.72;5085824;28;20032;-70
2023/04/06 06:41:56;;;;;;;8.52;6.80;;;;;;;5.88;39.41;99460.22;5085600;28;20068;-70
2023/04/06 06:44:23;;;;;;;7.78;6.72;;;;;;;6.15;39.19;99461.03;5086187;28;20059;-70
2023/04/06 06:46:49;;;;;;;8.38;7.00;;;;;;;6.29;38.84;99448.22;5085425;28;20248;-70
2023/04/06 06:49:18;;;;;;;9.93;8.40;;;;;;;6.66;38.69;99455.63;5085950;28;20110;-70
2023/04/06 06:51:45;;;;;;;8.63;7.13;;;;;;;6.88;38.43;99448.66;5086063;28;20098;-70
2023/04/06 06:54:12;;;;;;;9.43;7.13;;;;;;;7.08;38.08;99463.69;5085975;28;20108;-70
2023/04/06 06:56:38;;;;;;;9.50;7.18;;;;;;;7.05;38.00;99414.59;5085855;28;20040;-69
2023/04/06 06:59:05;;;;;;;8.90;6.38;;;;;;;7.46;37.94;99461.34;5085869;28;20052;-70
2023/04/06 07:01:34;;;;;;;8.80;7.07;;;;;;;7.63;37.70;99458.88;5085692;28;20131;-70
2023/04/06 07:04:01;;;;;;;9.20;6.57;;;;;;;7.81;37.81;99458.09;5085790;28;20219;-70
2023/04/06 07:06:29;;;;;;;8.25;7.00;;;;;;;8.00;37.60;99459.03;5085888;28;20048;-69
2023/04/06 07:08:55;;;;;;;8.63;7.03;;;;;;;8.18;37.46;99454.75;5085512;28;20036;-68
2023/04/06 07:11:22;;;;;;;9.00;7.65;;;;;;;8.26;37.32;99463.19;5085862;28;20046;-70
2023/04/06 07:13:49;;;;;;;8.95;6.85;;;;;;;8.32;37.29;99462.91;5085791;28;20063;-71
2023/04/06 07:16:16;;;;;;;8.98;6.30;;;;;;;8.32;37.37;99452.34;5085150;28;20036;-71
2023/04/06 07:18:42;;;;;;;6.68;6.00;;;;;;;8.44;37.45;99458.88;5085790;28;20045;-71
2023/04/06 07:21:09;;;;;;;8.60;6.97;;;;;;;8.56;37.33;99458.31;5085582;28;20082;-71
2023/04/06 07:23:37;;;;;;;7.63;6.00;;;;;;;8.67;37.70;99457.81;5085231;28;20036;-71
2023/04/06 07:26:04;;;;;;;10.60;7.00;;;;;;;8.36;37.16;99379.13;5084238;28;20198;-68
2023/04/06 07:28:31;;;;;;;11.05;7.88;;;;;;;8.98;37.09;99462.53;5085065;28;20036;-69
2023/04/06 07:30:57;;;;;;;13.70;6.30;;;;;;;9.12;37.01;99460.09;5085434;28;20040;-70
2023/04/06 07:33:24;;;;;;;9.30;6.57;;;;;;;9.28;36.91;99447.03;5085404;28;20235;-70
2023/04/06 07:35:52;;;;;;;8.00;6.53;;;;;;;9.43;36.79;99445.47;5085461;28;20099;-70
2023/04/06 07:38:20;;;;;;;7.97;6.28;;;;;;;8.66;36.47;99293.16;5085312;28;20289;-71
2023/04/06 07:40:48;;;;;;;12.80;7.28;;;;;;;9.81;36.32;99438.28;5085957;28;20037;-70
2023/04/06 07:43:15;;;;;;;9.38;6.63;;;;;;;9.92;36.15;99436.78;5084965;28;20384;-71
2023/04/06 07:45:42;;;;;;;9.73;6.47;;;;;;;10.07;36.02;99436.94;5085325;28;20033;-68
2023/04/06 07:48:09;;;;;;;8.40;5.97;;;;;;;10.28;35.93;99433.16;5084778;28;20057;-70
2023/04/06 07:50:36;;;;;;;8.00;5.45;;;;;;;10.46;35.38;99421.59;5085025;28;20052;-69
2023/04/06 07:53:03;;;;;;;9.68;6.88;;;;;;;10.57;35.23;99431.63;5085536;28;20055;-70
2023/04/06 07:55:30;;;;;;;8.25;5.88;;;;;;;10.72;35.17;99427.28;5085298;28;20041;-70
2023/04/06 07:57:59;;;;;;;7.35;5.10;;;;;;;10.85;34.87;99429.19;5084768;28;20048;-70
2023/04/06 08:00:26;;;;;;;7.70;5.63;;;;;;;11.01;34.89;99426.56;5085001;28;20040;-70
2023/04/06 08:02:52;;;;;;;7.25;5.38;;;;;;;11.08;34.55;99425.28;5084735;28;20049;-70
2023/04/06 08:05:19;;;;;;;7.10;5.10;;;;;;;11.15;34.63;99418.69;5084940;28;20070;-70
2023/04/06 08:07:45;;;;;;;8.35;5.40;;;;;;;11.27;34.43;99422.44;5084873;28;20052;-70
2023/04/06 08:10:12;;;;;;;7.82;5.40;;;;;;;11.33;34.07;99408.81;5084978;28;20040;-69
2023/04/06 08:12:39;;;;;;;8.23;5.18;;;;;;;11.39;33.64;99412.91;5086171;28;20081;-69
2023/04/06 08:15:07;;;;;;;7.00;5.05;;;;;;;11.20;32.98;99384.78;5084884;28;20040;-70
2023/04/06 08:17:34;;;;;;;7.45;5.82;;;;;;;11.37;33.80;99412.16;5085327;28;20044;-70
2023/04/06 08:20:03;;;;;;;7.97;5.60;;;;;;;11.55;33.58;99417.25;5084856;28;20052;-70
2023/04/06 08:22:29;;;;;;;6.88;4.80;;;;;;;11.66;33.38;99419.28;5084880;28;20079;-70
2023/04/06 08:24:56;;;;;;;8.20;4.53;;;;;;;11.76;33.42;99419.59;5085782;28;20048;-70
2023/04/06 08:27:23;;;;;;;10.93;5.47;;;;;;;11.90;33.30;99414.31;5085618;28;20063;-70
2023/04/06 08:29:51;;;;;;;7.65;5.05;;;;;;;11.99;32.38;99403.16;5086527;28;20248;-70
2023/04/06 08:32:19;;;;;;;6.63;4.63;;;;;;;12.20;32.59;99414.34;5085457;28;20201;-70
2023/04/06 08:34:45;;;;;;;6.75;4.82;;;;;;;12.22;32.59;99388.53;5084617;28;20044;-70
2023/04/06 08:37:12;;;;;;;8.10;4.63;;;;;;;12.41;32.23;99404.19;5084543;28;20047;-70
2023/04/06 08:39:39;;;;;;;7.85;4.50;;;;;;;12.07;32.13;99349.59;5088449;28;20245;-69
2023/04/06 08:42:14;;;;;;;7.53;4.68;;;;;;;12.62;31.03;99409.97;5087094;28;20265;-71
2023/04/06 08:44:41;;;;;;;7.00;4.90;;;;;;;12.68;31.87;99401.63;5087906;28;20055;-70
2023/04/06 08:47:08;;;;;;;8.52;4.80;;;;;;;12.73;31.95;99395.06;5088094;28;20048;-69
2023/04/06 08:49:38;;;;;;;6.10;4.50;;;;;;;12.74;30.81;99395.91;5087508;28;20220;-70
2023/04/06 08:52:07;;;;;;;6.60;4.45;;;;;;;12.83;31.78;99398.84;5087923;28;20224;-70
2023/04/06 08:54:33;;;;;;;6.75;4.72;;;;;;;12.93;31.59;99395.59;5088008;28;20045;-70
2023/04/06 08:57:01;;;;;;;7.93;5.63;;;;;;;13.02;31.50;99390.53;5088442;28;20032;-70
2023/04/06 08:59:28;;;;;;;6.43;4.88;;;;;;;13.20;31.42;99390.28;5087877;28;20115;-70
2023/04/06 09:01:56;;;;;;;6.55;5.53;;;;;;;12.77;31.34;99307.97;5087334;28;20105;-70
2023/04/06 09:04:23;;;;;;;7.03;4.63;;;;;;;13.31;31.43;99385.13;5087408;28;20067;-70
2023/04/06 09:06:51;;;;;;;6.63;5.00;;;;;;;13.38;31.14;99391.75;5087656;28;20048;-69
2023/04/06 09:09:17;;;;;;;7.95;4.63;;;;;;;13.36;31.34;99381.22;5087427;28;20055;-70
2023/04/06 09:11:46;;;;;;;7.10;4.78;;;;;;;13.37;31.39;99374.94;5087952;28;20051;-69
2023/04/06 09:14:13;;;;;;;8.38;5.30;;;;;;;13.48;31.26;99371.59;5087941;28;20075;-70
2023/04/06 09:16:41;;;;;;;5.75;4.85;;;;;;;13.46;31.09;99363.69;5087249;28;20044;-70
2023/04/06 09:19:07;;;;;;;8.10;4.70;;;;;;;13.37;31.28;99331.47;5087137;28;20236;-70
2023/04/06 09:21:35;;;;;;;6.57;4.80;;;;;;;13.47;30.84;99357.41;5086754;28;20040;-70
2023/04/06 09:24:04;;;;;;;5.80;4.00;;;;;;;13.29;30.74;99320.50;5087904;28;20184;-70
2023/04/06 09:26:33;;;;;;;5.70;4.47;;;;;;;13.41;30.69;99311.69;5087296;28;20040;-70
2023/04/06 09:29:01;;;;;;;8.65;4.43;;;;;;;13.71;30.65;99332.75;5087163;28;20056;-71
2023/04/06 09:31:29;;;;;;;7.03;4.05;;;;;;;13.64;30.45;99328.81;5087121;28;20036;-70
2023/04/06 09:33:57;;;;;;;6.72;4.00;;;;;;;13.53;30.47;99334.00;5086788;28;20032;-70
2023/04/06 09:36:31;;;;;;;5.00;3.83;;;;;;;13.36;29.02;99332.44;5086888;28;20289;-70
2023/04/06 09:38:59;;;;;;;6.15;4.65;;;;;;;12.67;30.96;99235.06;5087058;28;20300;-70
2023/04/06 09:41:29;;;;;;;9.68;4.03;;;;;;;13.41;30.12;99335.66;5086789;28;20304;-70
2023/04/06 09:44:03;;;;;;;5.85;4.15;;;;;;;13.51;29.25;99326.13;5087171;28;20048;-71
2023/04/06 09:46:33;;;;;;;4.72;3.72;;;;;;;13.58;29.97;99324.75;5086480;28;20293;-71
2023/04/06 09:49:00;;;;;;;4.93;3.50;;;;;;;13.67;30.22;99332.09;5085961;28;20048;-71
2023/04/06 09:51:32;;;;;;;4.57;3.45;;;;;;;13.79;29.01;99320.63;5086501;28;20040;-71
2023/04/06 09:54:02;;;;;;;4.90;3.88;;;;;;;13.91;29.14;99318.06;5086749;28;20045;-71
2023/04/06 09:56:34;;;;;;;5.13;3.50;;;;;;;13.98;28.58;99322.00;5086587;28;20044;-71
2023/04/06 09:59:06;;;;;;;5.53;3.85;;;;;;;13.81;28.90;99277.88;5086792;28;20112;-71
2023/04/06 10:01:34;;;;;;;6.57;3.53;;;;;;;13.85;28.81;99278.53;5086216;28;20037;-71
2023/04/06 10:04:14;;;;;;;4.70;3.63;;;;;;;13.70;27.88;99275.13;5086748;28;20239;-71
2023/04/06 10:06:40;;;;;;;6.40;3.42;;;;;;;13.88;28.88;99299.63;5087058;28;20243;-71
2023/04/06 10:09:09;;;;;;;5.20;3.35;;;;;;;13.78;28.67;99302.06;5086994;28;20082;-71
2023/04/06 10:11:37;;;;;;;5.90;4.00;;;;;;;13.62;28.86;99304.09;5086423;28;20046;-71
2023/04/06 10:14:04;;;;;;;4.53;3.30;;;;;;;13.59;29.19;99301.63;5086546;28;20052;-71
2023/04/06 10:16:31;;;;;;;5.15;3.15;;;;;;;13.48;28.70;99297.88;5085918;28;20101;-72
2023/04/06 10:19:07;;;;;;;5.75;4.05;;;;;;;12.56;27.97;99179.09;5086626;28;20218;-71
2023/04/06 10:21:36;;;;;;;5.93;3.30;;;;;;;13.21;28.80;99304.19;5086451;28;20111;-71
2023/04/06 10:24:09;;;;;;;4.65;3.47;;;;;;;13.16;28.86;99294.69;5086540;28;20051;-71
2023/04/06 10:26:37;;;;;;;3.97;3.35;;;;;;;13.05;29.11;99257.31;5086357;28;20115;-71
2023/04/06 10:29:05;;;;;;;4.68;3.30;;;;;;;13.24;28.69;99264.91;5086243;28;20040;-71
2023/04/06 10:31:31;;;;;;;5.53;3.65;;;;;;;13.31;28.62;99276.00;5086258;28;20040;-71
2023/04/06 10:34:00;;;;;;;5.68;3.75;;;;;;;13.34;28.46;99275.78;5086295;28;20064;-71
2023/04/06 10:36:28;;;;;;;5.55;3.53;;;;;;;13.35;28.53;99270.38;5086147;28;20097;-72
2023/04/06 10:38:57;;;;;;;4.20;3.25;;;;;;;13.44;28.34;99276.91;5086457;28;20041;-71
2023/04/06 10:41:23;;;;;;;4.85;3.65;;;;;;;13.32;28.11;99235.13;5086102;28;20227;-72
2023/04/06 10:43:57;;;;;;;5.85;3.88;;;;;;;13.50;27.08;99270.31;5085856;28;20231;-71
2023/04/06 10:46:27;;;;;;;6.90;4.18;;;;;;;13.18;27.85;99214.78;5086084;28;20048;-72
2023/04/06 10:48:53;;;;;;;6.75;4.13;;;;;;;13.48;28.33;99265.94;5085988;28;20060;-71
2023/04/06 10:51:27;;;;;;;5.15;3.17;;;;;;;13.51;27.16;99270.22;5086014;28;20089;-71
2023/04/06 10:53:55;;;;;;;4.32;3.72;;;;;;;13.50;27.86;99255.19;5086334;28;20072;-71
2023/04/06 10:56:23;;;;;;;4.90;3.92;;;;;;;13.45;27.87;99259.97;5085843;28;20044;-72
2023/04/06 10:58:52;;;;;;;6.85;4.45;;;;;;;13.31;28.08;99222.78;5085955;28;20037;-71
2023/04/06 11:01:22;;;;;;;4.90;4.05;;;;;;;13.31;27.63;99228.09;5085886;28;20040;-71
2023/04/06 11:03:51;;;;;;;5.45;3.45;;;;;;;13.39;28.06;99255.88;5085923;28;20103;-71
2023/04/06 11:06:19;;;;;;;6.10;3.80;;;;;;;13.32;28.27;99256.41;5085813;28;20292;-70
2023/04/06 11:08:46;;;;;;;5.20;3.63;;;;;;;13.28;28.40;99257.56;5085874;28;20111;-71
2023/04/06 11:11:15;;;;;;;5.97;3.85;;;;;;;13.23;28.18;99251.72;5085487;28;20086;-71
2023/04/06 11:13:43;;;;;;;6.22;4.30;;;;;;;13.17;28.14;99260.97;5085733;28;20216;-71
2023/04/06 11:16:15;;;;;;;5.90;3.72;;;;;;;13.17;27.70;99247.66;5085209;28;20340;-71
2023/04/06 11:18:55;;;;;;;4.85;3.20;;;;;;;12.51;26.83;99131.53;5085861;28;20216;-71
2023/04/06 11:21:39;;;;;;;5.22;3.92;;;;;;;13.19;27.05;99234.25;5085339;28;20112;-71
2023/04/06 11:24:07;;;;;;;6.25;4.90;;;;;;;13.00;28.06;99216.00;5085650;28;20048;-71
2023/04/06 11:26:38;;;;;;;4.68;3.33;;;;;;;12.94;27.43;99237.72;5085280;28;20036;-71
2023/04/06 11:29:05;;;;;;;5.25;3.65;;;;;;;12.93;28.04;99238.66;5085974;28;20044;-72
2023/04/06 11:31:32;;;;;;;4.18;3.03;;;;;;;12.96;28.12;99231.31;5085349;28;20045;-71
2023/04/06 11:34:00;;;;;;;4.93;3.60;;;;;;;13.02;27.94;99225.59;5085363;28;20040;-71
2023/04/06 11:36:29;;;;;;;5.13;3.40;;;;;;;12.96;27.98;99195.91;5085482;28;20296;-71
2023/04/06 11:38:57;;;;;;;4.72;3.55;;;;;;;13.26;27.89;99208.94;5085445;28;20307;-71
2023/04/06 11:41:29;;;;;;;4.88;3.22;;;;;;;13.39;27.64;99201.81;5084916;28;20119;-71